sensor_id;sensor_type;location;lat;lon;timestamp;pressure;altitude;pressure_sealevel;temperature
45850;BMP180;10739;52.198;20.908;2023-04-15T00:02:17;99548.00;;;13.80
45850;BMP180;10739;52.198;20.908;2023-04-15T00:04:45;99542.00;;;13.80
45850;BMP180;10739;52.198;20.908;2023-04-15T00:07:12;99543.00;;;13.90
45850;BMP180;10739;52.198;20.908;2023-04-15T00:09:41;99551.00;;;13.90
45850;BMP180;10739;52.198;20.908;2023-04-15T00:12:08;99543.00;;;14.20
45850;BMP180;10739;52.198;20.908;2023-04-15T00:14:34;99545.00;;;13.60
45850;BMP180;10739;52.198;20.908;2023-04-15T00:17:02;99547.00;;;13.80
45850;BMP180;10739;52.198;20.908;2023-04-15T00:19:29;99543.00;;;13.60
45850;BMP180;10739;52.198;20.908;2023-04-15T00:21:56;99537.00;;;13.90
45850;BMP180;10739;52.198;20.908;2023-04-15T00:24:23;99532.00;;;13.40
45850;BMP180;10739;52.198;20.908;2023-04-15T00:26:49;99536.00;;;13.50
45850;BMP180;10739;52.198;20.908;2023-04-15T00:29:15;99543.00;;;13.50
45850;BMP180;10739;52.198;20.908;2023-04-15T00:31:41;99538.00;;;13.20
45850;BMP180;10739;52.198;20.908;2023-04-15T00:34:08;99544.00;;;13.10
45850;BMP180;10739;52.198;20.908;2023-04-15T00:36:34;99540.00;;;13.30
45850;BMP180;10739;52.198;20.908;2023-04-15T00:39:01;99541.00;;;13.00
45850;BMP180;10739;52.198;20.908;2023-04-15T00:41:28;99539.00;;;13.00
45850;BMP180;10739;52.198;20.908;2023-04-15T00:43:54;99539.00;;;13.00
45850;BMP180;10739;52.198;20.908;2023-04-15T00:46:21;99537.00;;;13.10
45850;BMP180;10739;52.198;20.908;2023-04-15T00:48:48;99533.00;;;12.80
45850;BMP180;10739;52.198;20.908;2023-04-15T00:51:15;99529.00;;;12.80
45850;BMP180;10739;52.198;20.908;2023-04-15T00:53:41;99537.00;;;12.70
45850;BMP180;10739;52.198;20.908;2023-04-15T00:56:08;99546.00;;;12.50
45850;BMP180;10739;52.198;20.908;2023-04-15T00:58:35;99542.00;;;12.80
45850;BMP180;10739;52.198;20.908;2023-04-15T01:01:03;99536.00;;;12.70
45850;BMP180;10739;52.198;20.908;2023-04-15T01:03:29;99536.00;;;12.80
45850;BMP180;10739;52.198;20.908;2023-04-15T01:05:59;99541.00;;;12.80
45850;BMP180;10739;52.198;20.908;2023-04-15T01:08:29;99531.00;;;12.50
45850;BMP180;10739;52.198;20.908;2023-04-15T01:10:57;99536.00;;;12.80
45850;BMP180;10739;52.198;20.908;2023-04-15T01:13:24;99536.00;;;12.90
45850;BMP180;10739;52.198;20.908;2023-04-15T01:15:52;99535.00;;;13.10
45850;BMP180;10739;52.198;20.908;2023-04-15T01:18:19;99540.00;;;13.00
45850;BMP180;10739;52.198;20.908;2023-04-15T01:20:46;99537.00;;;12.90
45850;BMP180;10739;52.198;20.908;2023-04-15T01:23:12;99534.00;;;12.80
45850;BMP180;10739;52.198;20.908;2023-04-15T01:25:39;99539.00;;;13.00
45850;BMP180;10739;52.198;20.908;2023-04-15T01:28:07;99539.00;;;12.60
45850;BMP180;10739;52.198;20.908;2023-04-15T01:30:34;99539.00;;;12.70
45850;BMP180;10739;52.198;20.908;2023-04-15T01:33:01;99543.00;;;12.70
45850;BMP180;10739;52.198;20.908;2023-04-15T01:35:27;99537.00;;;12.30
45850;BMP180;10739;52.198;20.908;2023-04-15T01:38:07;99537.00;;;12.30
45850;BMP180;10739;52.198;20.908;2023-04-15T01:40:34;99537.00;;;12.40
45850;BMP180;10739;52.198;20.908;2023-04-15T01:43:01;99534.00;;;12.50
45850;BMP180;10739;52.198;20.908;2023-04-15T01:45:28;99528.00;;;12.70
45850;BMP180;10739;52.198;20.908;2023-04-15T01:47:55;99535.00;;;12.60
45850;BMP180;10739;52.198;20.908;2023-04-15T01:50:22;99527.00;;;12.50
45850;BMP180;10739;52.198;20.908;2023-04-15T01:52:48;99539.00;;;12.10
45850;BMP180;10739;52.198;20.908;2023-04-15T01:55:14;99535.00;;;12.20
45850;BMP180;10739;52.198;20.908;2023-04-15T01:57:41;99537.00;;;12.60
45850;BMP180;10739;52.198;20.908;2023-04-15T02:00:07;99536.00;;;12.40
45850;BMP180;10739;52.198;20.908;2023-04-15T02:02:34;99534.00;;;12.30
45850;BMP180;10739;52.198;20.908;2023-04-15T02:05:00;99535.00;;;12.30
45850;BMP180;10739;52.198;20.908;2023-04-15T02:07:27;99529.00;;;12.30
45850;BMP180;10739;52.198;20.908;2023-04-15T02:09:57;99526.00;;;12.20
45850;BMP180;10739;52.198;20.908;2023-04-15T02:12:23;99539.00;;;12.30
45850;BMP180;10739;52.198;20.908;2023-04-15T02:14:49;99522.00;;;12.50
45850;BMP180;10739;52.198;20.908;2023-04-15T02:17:15;99524.00;;;12.30
45850;BMP180;10739;52.198;20.908;2023-04-15T02:19:42;99535.00;;;12.40
45850;BMP180;10739;52.198;20.908;2023-04-15T02:22:08;99522.00;;;12.50
45850;BMP180;10739;52.198;20.908;2023-04-15T02:24:36;99528.00;;;12.30
45850;BMP180;10739;52.198;20.908;2023-04-15T02:27:02;99525.00;;;12.50
45850;BMP180;10739;52.198;20.908;2023-04-15T02:29:30;99525.00;;;12.50
45850;BMP180;10739;52.198;20.908;2023-04-15T02:31:57;99530.00;;;12.60
45850;BMP180;10739;52.198;20.908;2023-04-15T02:34:23;99528.00;;;12.40
45850;BMP180;10739;52.198;20.908;2023-04-15T02:36:49;99519.00;;;12.40
45850;BMP180;10739;52.198;20.908;2023-04-15T02:39:19;99518.00;;;12.40
45850;BMP180;10739;52.198;20.908;2023-04-15T02:41:46;99522.00;;;12.30
45850;BMP180;10739;52.198;20.908;2023-04-15T02:44:17;99518.00;;;12.30
45850;BMP180;10739;52.198;20.908;2023-04-15T02:46:46;99522.00;;;12.20
45850;BMP180;10739;52.198;20.908;2023-04-15T02:49:15;99527.00;;;12.10
45850;BMP180;10739;52.198;20.908;2023-04-15T02:51:42;99515.00;;;12.30
45850;BMP180;10739;52.198;20.908;2023-04-15T02:54:08;99521.00;;;12.40
45850;BMP180;10739;52.198;20.908;2023-04-15T02:56:34;99523.00;;;12.20
45850;BMP180;10739;52.198;20.908;2023-04-15T02:59:01;99516.00;;;12.20
45850;BMP180;10739;52.198;20.908;2023-04-15T03:01:27;99521.00;;;12.40
45850;BMP180;10739;52.198;20.908;2023-04-15T03:03:53;99514.00;;;12.10
45850;BMP180;10739;52.198;20.908;2023-04-15T03:06:19;99521.00;;;12.30
45850;BMP180;10739;52.198;20.908;2023-04-15T03:08:45;99514.00;;;12.20
45850;BMP180;10739;52.198;20.908;2023-04-15T03:11:13;99513.00;;;12.30
45850;BMP180;10739;52.198;20.908;2023-04-15T03:13:39;99520.00;;;12.10
45850;BMP180;10739;52.198;20.908;2023-04-15T03:16:08;99521.00;;;12.40
45850;BMP180;10739;52.198;20.908;2023-04-15T03:18:35;99518.00;;;12.20
45850;BMP180;10739;52.198;20.908;2023-04-15T03:21:02;99518.00;;;12.20
45850;BMP180;10739;52.198;20.908;2023-04-15T03:23:30;99516.00;;;12.40
45850;BMP180;10739;52.198;20.908;2023-04-15T03:26:00;99509.00;;;12.60
45850;BMP180;10739;52.198;20.908;2023-04-15T03:28:26;99513.00;;;12.30
45850;BMP180;10739;52.198;20.908;2023-04-15T03:30:54;99518.00;;;12.30
45850;BMP180;10739;52.198;20.908;2023-04-15T03:33:21;99525.00;;;12.30
45850;BMP180;10739;52.198;20.908;2023-04-15T03:35:47;99525.00;;;12.20
45850;BMP180;10739;52.198;20.908;2023-04-15T03:38:14;99524.00;;;12.30
45850;BMP180;10739;52.198;20.908;2023-04-15T03:40:40;99514.00;;;12.40
45850;BMP180;10739;52.198;20.908;2023-04-15T03:43:07;99515.00;;;12.20
45850;BMP180;10739;52.198;20.908;2023-04-15T03:45:33;99521.00;;;12.50
45850;BMP180;10739;52.198;20.908;2023-04-15T03:48:00;99520.00;;;12.30
45850;BMP180;10739;52.198;20.908;2023-04-15T03:50:26;99521.00;;;12.30
45850;BMP180;10739;52.198;20.908;2023-04-15T03:52:52;99520.00;;;12.40
45850;BMP180;10739;52.198;20.908;2023-04-15T03:55:19;99529.00;;;12.40
45850;BMP180;10739;52.198;20.908;2023-04-15T03:57:45;99517.00;;;12.20
45850;BMP180;10739;52.198;20.908;2023-04-15T04:00:12;99523.00;;;12.40
45850;BMP180;10739;52.198;20.908;2023-04-15T04:02:38;99517.00;;;12.50
45850;BMP180;10739;52.198;20.908;2023-04-15T04:05:04;99523.00;;;12.30
45850;BMP180;10739;52.198;20.908;2023-04-15T04:07:31;99528.00;;;12.40
45850;BMP180;10739;52.198;20.908;2023-04-15T04:09:57;99526.00;;;12.30
45850;BMP180;10739;52.198;20.908;2023-04-15T04:12:24;99528.00;;;12.30
45850;BMP180;10739;52.198;20.908;2023-04-15T04:14:50;99528.00;;;12.20
45850;BMP180;10739;52.198;20.908;2023-04-15T04:17:17;99528.00;;;12.30
45850;BMP180;10739;52.198;20.908;2023-04-15T04:19:43;99534.00;;;12.40
45850;BMP180;10739;52.198;20.908;2023-04-15T04:22:09;99524.00;;;12.10
45850;BMP180;10739;52.198;20.908;2023-04-15T04:24:36;99528.00;;;12.20
45850;BMP180;10739;52.198;20.908;2023-04-15T04:27:02;99528.00;;;12.40
45850;BMP180;10739;52.198;20.908;2023-04-15T04:29:29;99535.00;;;12.30
45850;BMP180;10739;52.198;20.908;2023-04-15T04:31:55;99525.00;;;12.50
45850;BMP180;10739;52.198;20.908;2023-04-15T04:34:22;99530.00;;;12.40
45850;BMP180;10739;52.198;20.908;2023-04-15T04:36:48;99529.00;;;12.50
45850;BMP180;10739;52.198;20.908;2023-04-15T04:39:14;99524.00;;;12.60
45850;BMP180;10739;52.198;20.908;2023-04-15T04:41:40;99533.00;;;12.40
45850;BMP180;10739;52.198;20.908;2023-04-15T04:44:06;99530.00;;;12.20
45850;BMP180;10739;52.198;20.908;2023-04-15T04:46:33;99526.00;;;12.20
45850;BMP180;10739;52.198;20.908;2023-04-15T04:48:59;99533.00;;;12.20
45850;BMP180;10739;52.198;20.908;2023-04-15T04:51:25;99519.00;;;12.40
45850;BMP180;10739;52.198;20.908;2023-04-15T04:53:53;99536.00;;;12.50
45850;BMP180;10739;52.198;20.908;2023-04-15T04:56:20;99521.00;;;12.50
45850;BMP180;10739;52.198;20.908;2023-04-15T04:58:46;99528.00;;;12.50
45850;BMP180;10739;52.198;20.908;2023-04-15T05:01:12;99533.00;;;12.40
45850;BMP180;10739;52.198;20.908;2023-04-15T05:03:39;99539.00;;;12.30
45850;BMP180;10739;52.198;20.908;2023-04-15T05:06:05;99525.00;;;12.50
45850;BMP180;10739;52.198;20.908;2023-04-15T05:08:33;99536.00;;;12.40
45850;BMP180;10739;52.198;20.908;2023-04-15T05:10:59;99527.00;;;12.40
45850;BMP180;10739;52.198;20.908;2023-04-15T05:13:26;99540.00;;;12.40
45850;BMP180;10739;52.198;20.908;2023-04-15T05:15:52;99540.00;;;12.40
45850;BMP180;10739;52.198;20.908;2023-04-15T05:18:19;99528.00;;;12.40
45850;BMP180;10739;52.198;20.908;2023-04-15T05:20:45;99538.00;;;12.20
45850;BMP180;10739;52.198;20.908;2023-04-15T05:23:11;99539.00;;;12.30
45850;BMP180;10739;52.198;20.908;2023-04-15T05:25:38;99536.00;;;12.50
45850;BMP180;10739;52.198;20.908;2023-04-15T05:28:04;99542.00;;;12.50
45850;BMP180;10739;52.198;20.908;2023-04-15T05:30:31;99539.00;;;12.70
45850;BMP180;10739;52.198;20.908;2023-04-15T05:32:57;99536.00;;;12.40
45850;BMP180;10739;52.198;20.908;2023-04-15T05:35:24;99528.00;;;12.60
45850;BMP180;10739;52.198;20.908;2023-04-15T05:37:50;99540.00;;;12.20
45850;BMP180;10739;52.198;20.908;2023-04-15T05:40:17;99541.00;;;12.40
45850;BMP180;10739;52.198;20.908;2023-04-15T05:42:43;99533.00;;;12.30
45850;BMP180;10739;52.198;20.908;2023-04-15T05:45:10;99548.00;;;12.30
45850;BMP180;10739;52.198;20.908;2023-04-15T05:47:37;99544.00;;;12.30
45850;BMP180;10739;52.198;20.908;2023-04-15T05:50:04;99548.00;;;12.40
45850;BMP180;10739;52.198;20.908;2023-04-15T05:52:31;99552.00;;;12.80
45850;BMP180;10739;52.198;20.908;2023-04-15T05:54:58;99548.00;;;12.30
45850;BMP180;10739;52.198;20.908;2023-04-15T05:57:24;99546.00;;;12.30
45850;BMP180;10739;52.198;20.908;2023-04-15T05:59:50;99549.00;;;12.30
45850;BMP180;10739;52.198;20.908;2023-04-15T06:02:18;99545.00;;;12.20
45850;BMP180;10739;52.198;20.908;2023-04-15T06:04:44;99553.00;;;12.40
45850;BMP180;10739;52.198;20.908;2023-04-15T06:07:10;99543.00;;;12.00
45850;BMP180;10739;52.198;20.908;2023-04-15T06:09:37;99553.00;;;12.30
45850;BMP180;10739;52.198;20.908;2023-04-15T06:12:03;99540.00;;;12.30
45850;BMP180;10739;52.198;20.908;2023-04-15T06:14:29;99545.00;;;12.30
45850;BMP180;10739;52.198;20.908;2023-04-15T06:16:55;99551.00;;;12.60
45850;BMP180;10739;52.198;20.908;2023-04-15T06:19:23;99556.00;;;12.30
45850;BMP180;10739;52.198;20.908;2023-04-15T06:21:49;99551.00;;;12.60
45850;BMP180;10739;52.198;20.908;2023-04-15T06:24:16;99555.00;;;12.20
45850;BMP180;10739;52.198;20.908;2023-04-15T06:26:42;99564.00;;;12.20
45850;BMP180;10739;52.198;20.908;2023-04-15T06:29:09;99560.00;;;12.10
45850;BMP180;10739;52.198;20.908;2023-04-15T06:31:35;99560.00;;;12.50
45850;BMP180;10739;52.198;20.908;2023-04-15T06:34:02;99572.00;;;12.40
45850;BMP180;10739;52.198;20.908;2023-04-15T06:36:28;99556.00;;;12.30
45850;BMP180;10739;52.198;20.908;2023-04-15T06:38:55;99565.00;;;12.40
45850;BMP180;10739;52.198;20.908;2023-04-15T06:41:22;99579.00;;;12.40
45850;BMP180;10739;52.198;20.908;2023-04-15T06:43:48;99575.00;;;12.50
45850;BMP180;10739;52.198;20.908;2023-04-15T06:46:14;99565.00;;;12.50
45850;BMP180;10739;52.198;20.908;2023-04-15T06:48:41;99563.00;;;12.50
45850;BMP180;10739;52.198;20.908;2023-04-15T06:51:07;99571.00;;;12.40
45850;BMP180;10739;52.198;20.908;2023-04-15T06:53:34;99573.00;;;12.40
45850;BMP180;10739;52.198;20.908;2023-04-15T06:56:00;99575.00;;;12.30
45850;BMP180;10739;52.198;20.908;2023-04-15T06:58:26;99579.00;;;12.20
45850;BMP180;10739;52.198;20.908;2023-04-15T07:00:53;99570.00;;;12.20
45850;BMP180;10739;52.198;20.908;2023-04-15T07:03:19;99583.00;;;12.40
45850;BMP180;10739;52.198;20.908;2023-04-15T07:05:46;99588.00;;;12.60
45850;BMP180;10739;52.198;20.908;2023-04-15T07:08:12;99588.00;;;12.70
45850;BMP180;10739;52.198;20.908;2023-04-15T07:10:39;99594.00;;;12.50
45850;BMP180;10739;52.198;20.908;2023-04-15T07:13:05;99587.00;;;12.30
45850;BMP180;10739;52.198;20.908;2023-04-15T07:15:33;99598.00;;;12.50
45850;BMP180;10739;52.198;20.908;2023-04-15T07:18:00;99591.00;;;12.60
45850;BMP180;10739;52.198;20.908;2023-04-15T07:20:27;99592.00;;;12.70
45850;BMP180;10739;52.198;20.908;2023-04-15T07:22:53;99603.00;;;12.40
45850;BMP180;10739;52.198;20.908;2023-04-15T07:25:20;99596.00;;;12.60
45850;BMP180;10739;52.198;20.908;2023-04-15T07:27:46;99590.00;;;12.60
45850;BMP180;10739;52.198;20.908;2023-04-15T07:30:13;99592.00;;;12.60
45850;BMP180;10739;52.198;20.908;2023-04-15T07:32:39;99594.00;;;12.50
45850;BMP180;10739;52.198;20.908;2023-04-15T07:35:06;99598.00;;;12.60
45850;BMP180;10739;52.198;20.908;2023-04-15T07:37:32;99596.00;;;12.50
45850;BMP180;10739;52.198;20.908;2023-04-15T07:39:59;99590.00;;;12.60
45850;BMP180;10739;52.198;20.908;2023-04-15T07:42:25;99597.00;;;12.70
45850;BMP180;10739;52.198;20.908;2023-04-15T07:44:52;99598.00;;;12.80
45850;BMP180;10739;52.198;20.908;2023-04-15T07:47:19;99593.00;;;12.60
45850;BMP180;10739;52.198;20.908;2023-04-15T07:49:45;99596.00;;;12.70
45850;BMP180;10739;52.198;20.908;2023-04-15T07:52:11;99585.00;;;12.70
45850;BMP180;10739;52.198;20.908;2023-04-15T07:54:37;99598.00;;;12.80
45850;BMP180;10739;52.198;20.908;2023-04-15T07:57:04;99583.00;;;12.70
45850;BMP180;10739;52.198;20.908;2023-04-15T07:59:31;99588.00;;;12.60
45850;BMP180;10739;52.198;20.908;2023-04-15T08:01:58;99597.00;;;12.70
45850;BMP180;10739;52.198;20.908;2023-04-15T08:04:24;99597.00;;;12.50
45850;BMP180;10739;52.198;20.908;2023-04-15T08:06:51;99580.00;;;12.60
45850;BMP180;10739;52.198;20.908;2023-04-15T08:09:17;99602.00;;;12.50
45850;BMP180;10739;52.198;20.908;2023-04-15T08:11:43;99597.00;;;12.40
45850;BMP180;10739;52.198;20.908;2023-04-15T08:14:10;99579.00;;;12.60
45850;BMP180;10739;52.198;20.908;2023-04-15T08:16:36;99602.00;;;12.40
45850;BMP180;10739;52.198;20.908;2023-04-15T08:19:02;99594.00;;;12.70
45850;BMP180;10739;52.198;20.908;2023-04-15T08:21:30;99588.00;;;12.70
45850;BMP180;10739;52.198;20.908;2023-04-15T08:23:56;99592.00;;;12.50
45850;BMP180;10739;52.198;20.908;2023-04-15T08:26:23;99598.00;;;13.00
45850;BMP180;10739;52.198;20.908;2023-04-15T08:28:49;99594.00;;;12.90
45850;BMP180;10739;52.198;20.908;2023-04-15T08:31:18;99592.00;;;12.90
45850;BMP180;10739;52.198;20.908;2023-04-15T08:33:45;99584.00;;;12.80
45850;BMP180;10739;52.198;20.908;2023-04-15T08:36:11;99591.00;;;13.10
45850;BMP180;10739;52.198;20.908;2023-04-15T08:38:39;99595.00;;;12.60
45850;BMP180;10739;52.198;20.908;2023-04-15T08:41:15;99594.00;;;12.90
45850;BMP180;10739;52.198;20.908;2023-04-15T08:44:03;99596.00;;;12.90
45850;BMP180;10739;52.198;20.908;2023-04-15T08:46:31;99601.00;;;12.80
45850;BMP180;10739;52.198;20.908;2023-04-15T08:49:03;99598.00;;;13.10
45850;BMP180;10739;52.198;20.908;2023-04-15T08:51:30;99600.00;;;12.80
45850;BMP180;10739;52.198;20.908;2023-04-15T08:53:57;99594.00;;;12.90
45850;BMP180;10739;52.198;20.908;2023-04-15T08:56:25;99598.00;;;13.00
45850;BMP180;10739;52.198;20.908;2023-04-15T08:58:52;99598.00;;;13.20
45850;BMP180;10739;52.198;20.908;2023-04-15T09:01:19;99598.00;;;13.20
45850;BMP180;10739;52.198;20.908;2023-04-15T09:03:48;99604.00;;;13.20
45850;BMP180;10739;52.198;20.908;2023-04-15T09:06:19;99599.00;;;13.20
45850;BMP180;10739;52.198;20.908;2023-04-15T09:08:46;99592.00;;;13.20
45850;BMP180;10739;52.198;20.908;2023-04-15T09:11:13;99596.00;;;13.30
45850;BMP180;10739;52.198;20.908;2023-04-15T09:13:40;99600.00;;;13.00
45850;BMP180;10739;52.198;20.908;2023-04-15T09:16:06;99596.00;;;13.10
45850;BMP180;10739;52.198;20.908;2023-04-15T09:18:35;99600.00;;;13.60
45850;BMP180;10739;52.198;20.908;2023-04-15T09:21:30;99605.00;;;13.40
45850;BMP180;10739;52.198;20.908;2023-04-15T09:23:59;99600.00;;;13.20
45850;BMP180;10739;52.198;20.908;2023-04-15T09:26:35;99603.00;;;13.20
45850;BMP180;10739;52.198;20.908;2023-04-15T09:31:32;99608.00;;;13.30
45850;BMP180;10739;52.198;20.908;2023-04-15T09:33:58;99603.00;;;13.20
45850;BMP180;10739;52.198;20.908;2023-04-15T09:36:25;99596.00;;;13.50
45850;BMP180;10739;52.198;20.908;2023-04-15T09:38:59;99602.00;;;13.60
45850;BMP180;10739;52.198;20.908;2023-04-15T09:41:26;99607.00;;;13.70
45850;BMP180;10739;52.198;20.908;2023-04-15T09:43:53;99615.00;;;13.20
45850;BMP180;10739;52.198;20.908;2023-04-15T09:46:19;99606.00;;;13.50
45850;BMP180;10739;52.198;20.908;2023-04-15T09:49:06;99612.00;;;13.30
45850;BMP180;10739;52.198;20.908;2023-04-15T09:51:37;99609.00;;;13.40
45850;BMP180;10739;52.198;20.908;2023-04-15T09:54:04;99605.00;;;13.30
45850;BMP180;10739;52.198;20.908;2023-04-15T09:56:35;99617.00;;;13.20
45850;BMP180;10739;52.198;20.908;2023-04-15T09:59:04;99618.00;;;13.40
45850;BMP180;10739;52.198;20.908;2023-04-15T10:01:31;99618.00;;;13.60
45850;BMP180;10739;52.198;20.908;2023-04-15T10:04:02;99617.00;;;13.50
45850;BMP180;10739;52.198;20.908;2023-04-15T10:06:29;99624.00;;;13.80
45850;BMP180;10739;52.198;20.908;2023-04-15T10:09:00;99611.00;;;13.60
45850;BMP180;10739;52.198;20.908;2023-04-15T10:11:30;99614.00;;;13.80
45850;BMP180;10739;52.198;20.908;2023-04-15T10:13:57;99612.00;;;13.50
45850;BMP180;10739;52.198;20.908;2023-04-15T10:16:27;99614.00;;;13.80
45850;BMP180;10739;52.198;20.908;2023-04-15T10:18:56;99612.00;;;14.00
45850;BMP180;10739;52.198;20.908;2023-04-15T10:21:23;99624.00;;;13.90
45850;BMP180;10739;52.198;20.908;2023-04-15T10:23:50;99616.00;;;13.80
45850;BMP180;10739;52.198;20.908;2023-04-15T10:26:17;99618.00;;;14.00
45850;BMP180;10739;52.198;20.908;2023-04-15T10:28:44;99614.00;;;13.80
45850;BMP180;10739;52.198;20.908;2023-04-15T10:31:13;99616.00;;;13.90
45850;BMP180;10739;52.198;20.908;2023-04-15T10:33:43;99614.00;;;13.90
45850;BMP180;10739;52.198;20.908;2023-04-15T10:36:10;99609.00;;;13.70
45850;BMP180;10739;52.198;20.908;2023-04-15T10:38:44;99613.00;;;13.60
45850;BMP180;10739;52.198;20.908;2023-04-15T10:41:19;99621.00;;;13.80
45850;BMP180;10739;52.198;20.908;2023-04-15T10:43:55;99612.00;;;14.10
45850;BMP180;10739;52.198;20.908;2023-04-15T10:46:45;99618.00;;;13.70
45850;BMP180;10739;52.198;20.908;2023-04-15T10:49:23;99616.00;;;14.00
45850;BMP180;10739;52.198;20.908;2023-04-15T10:52:02;99612.00;;;14.00
45850;BMP180;10739;52.198;20.908;2023-04-15T11:00:17;99626.00;;;14.40
45850;BMP180;10739;52.198;20.908;2023-04-15T11:02:21;99633.00;;;14.60
45850;BMP180;10739;52.198;20.908;2023-04-15T11:05:07;99625.00;;;14.60
45850;BMP180;10739;52.198;20.908;2023-04-15T11:13:02;99620.00;;;14.70
45850;BMP180;10739;52.198;20.908;2023-04-15T11:16:05;99618.00;;;14.80
45850;BMP180;10739;52.198;20.908;2023-04-15T11:18:33;99626.00;;;14.50
45850;BMP180;10739;52.198;20.908;2023-04-15T11:21:03;99624.00;;;14.50
45850;BMP180;10739;52.198;20.908;2023-04-15T11:23:34;99631.00;;;14.70
45850;BMP180;10739;52.198;20.908;2023-04-15T11:26:03;99632.00;;;14.50
45850;BMP180;10739;52.198;20.908;2023-04-15T11:28:44;99635.00;;;14.30
45850;BMP180;10739;52.198;20.908;2023-04-15T11:31:20;99645.00;;;14.50
45850;BMP180;10739;52.198;20.908;2023-04-15T11:33:58;99642.00;;;14.50
45850;BMP180;10739;52.198;20.908;2023-04-15T11:36:29;99639.00;;;14.50
45850;BMP180;10739;52.198;20.908;2023-04-15T11:38:58;99642.00;;;14.70
45850;BMP180;10739;52.198;20.908;2023-04-15T11:41:25;99639.00;;;14.70
45850;BMP180;10739;52.198;20.908;2023-04-15T11:43:51;99645.00;;;15.00
45850;BMP180;10739;52.198;20.908;2023-04-15T11:46:18;99643.00;;;15.20
45850;BMP180;10739;52.198;20.908;2023-04-15T11:48:45;99642.00;;;15.10
45850;BMP180;10739;52.198;20.908;2023-04-15T11:51:13;99643.00;;;15.00
45850;BMP180;10739;52.198;20.908;2023-04-15T11:53:43;99641.00;;;15.20
45850;BMP180;10739;52.198;20.908;2023-04-15T11:58:44;99647.00;;;15.50
45850;BMP180;10739;52.198;20.908;2023-04-15T12:01:11;99647.00;;;15.50
45850;BMP180;10739;52.198;20.908;2023-04-15T12:03:41;99653.00;;;15.90
45850;BMP180;10739;52.198;20.908;2023-04-15T12:06:21;99646.00;;;15.70
45850;BMP180;10739;52.198;20.908;2023-04-15T12:09:07;99657.00;;;15.60
45850;BMP180;10739;52.198;20.908;2023-04-15T12:14:12;99657.00;;;15.40
45850;BMP180;10739;52.198;20.908;2023-04-15T12:16:48;99657.00;;;15.10
45850;BMP180;10739;52.198;20.908;2023-04-15T12:19:26;99667.00;;;15.20
45850;BMP180;10739;52.198;20.908;2023-04-15T12:22:01;99672.00;;;15.40
45850;BMP180;10739;52.198;20.908;2023-04-15T12:24:32;99670.00;;;15.10
45850;BMP180;10739;52.198;20.908;2023-04-15T12:27:10;99671.00;;;15.10
45850;BMP180;10739;52.198;20.908;2023-04-15T12:29:39;99677.00;;;15.30
45850;BMP180;10739;52.198;20.908;2023-04-15T12:32:11;99685.00;;;15.20
45850;BMP180;10739;52.198;20.908;2023-04-15T12:34:42;99684.00;;;14.70
45850;BMP180;10739;52.198;20.908;2023-04-15T12:37:11;99684.00;;;15.10
45850;BMP180;10739;52.198;20.908;2023-04-15T12:39:43;99685.00;;;15.00
45850;BMP180;10739;52.198;20.908;2023-04-15T12:42:11;99683.00;;;14.90
45850;BMP180;10739;52.198;20.908;2023-04-15T12:44:38;99689.00;;;15.10
45850;BMP180;10739;52.198;20.908;2023-04-15T12:47:07;99690.00;;;15.00
45850;BMP180;10739;52.198;20.908;2023-04-15T12:49:34;99690.00;;;15.20
45850;BMP180;10739;52.198;20.908;2023-04-15T12:52:01;99691.00;;;15.40
45850;BMP180;10739;52.198;20.908;2023-04-15T12:54:29;99691.00;;;15.80
45850;BMP180;10739;52.198;20.908;2023-04-15T12:56:57;99687.00;;;16.00
45850;BMP180;10739;52.198;20.908;2023-04-15T12:59:24;99702.00;;;15.90
45850;BMP180;10739;52.198;20.908;2023-04-15T13:01:51;99697.00;;;16.10
45850;BMP180;10739;52.198;20.908;2023-04-15T13:04:19;99704.00;;;16.30
45850;BMP180;10739;52.198;20.908;2023-04-15T13:06:45;99701.00;;;16.10
45850;BMP180;10739;52.198;20.908;2023-04-15T13:09:12;99702.00;;;16.10
45850;BMP180;10739;52.198;20.908;2023-04-15T13:11:38;99699.00;;;15.90
45850;BMP180;10739;52.198;20.908;2023-04-15T13:14:07;99705.00;;;16.30
45850;BMP180;10739;52.198;20.908;2023-04-15T13:16:34;99704.00;;;16.50
45850;BMP180;10739;52.198;20.908;2023-04-15T13:19:02;99703.00;;;16.50
45850;BMP180;10739;52.198;20.908;2023-04-15T13:21:29;99714.00;;;16.60
45850;BMP180;10739;52.198;20.908;2023-04-15T13:24:00;99717.00;;;16.40
45850;BMP180;10739;52.198;20.908;2023-04-15T13:26:27;99713.00;;;16.00
45850;BMP180;10739;52.198;20.908;2023-04-15T13:28:53;99719.00;;;16.00
45850;BMP180;10739;52.198;20.908;2023-04-15T13:31:20;99719.00;;;16.10
45850;BMP180;10739;52.198;20.908;2023-04-15T13:33:46;99728.00;;;15.70
45850;BMP180;10739;52.198;20.908;2023-04-15T13:36:13;99723.00;;;15.30
45850;BMP180;10739;52.198;20.908;2023-04-15T13:38:39;99728.00;;;15.60
45850;BMP180;10739;52.198;20.908;2023-04-15T13:41:05;99728.00;;;16.10
45850;BMP180;10739;52.198;20.908;2023-04-15T13:43:31;99729.00;;;15.70
45850;BMP180;10739;52.198;20.908;2023-04-15T13:45:59;99732.00;;;15.40
45850;BMP180;10739;52.198;20.908;2023-04-15T13:48:25;99733.00;;;15.70
45850;BMP180;10739;52.198;20.908;2023-04-15T13:50:51;99735.00;;;15.80
45850;BMP180;10739;52.198;20.908;2023-04-15T13:53:18;99746.00;;;15.50
45850;BMP180;10739;52.198;20.908;2023-04-15T13:55:44;99739.00;;;15.70
45850;BMP180;10739;52.198;20.908;2023-04-15T13:58:10;99735.00;;;15.90
45850;BMP180;10739;52.198;20.908;2023-04-15T14:00:37;99740.00;;;16.00
45850;BMP180;10739;52.198;20.908;2023-04-15T14:03:03;99755.00;;;15.30
45850;BMP180;10739;52.198;20.908;2023-04-15T14:05:31;99743.00;;;14.80
45850;BMP180;10739;52.198;20.908;2023-04-15T14:07:59;99749.00;;;14.80
45850;BMP180;10739;52.198;20.908;2023-04-15T14:10:25;99742.00;;;14.80
45850;BMP180;10739;52.198;20.908;2023-04-15T14:12:51;99734.00;;;15.20
45850;BMP180;10739;52.198;20.908;2023-04-15T14:15:18;99741.00;;;15.00
45850;BMP180;10739;52.198;20.908;2023-04-15T14:17:44;99748.00;;;15.20
45850;BMP180;10739;52.198;20.908;2023-04-15T14:20:11;99754.00;;;15.60